createdAt,value
2019-02-02T00:03:27.721Z,117.10
2019-02-02T00:08:34.783Z,117.37
2019-02-02T00:13:41.755Z,116.27
2019-02-02T00:18:47.738Z,144.50
2019-02-02T00:23:53.202Z,134.07
2019-02-02T00:28:58.980Z,124.30
2019-02-02T00:34:04.942Z,123.17
2019-02-02T00:39:11.276Z,125.13
2019-02-02T00:44:17.419Z,139.67
2019-02-02T00:49:22.890Z,156.33
2019-02-02T00:54:28.775Z,143.87
2019-02-02T00:59:34.552Z,151.40
2019-02-02T01:04:40.672Z,143.77
2019-02-02T01:09:46.136Z,143.50
2019-02-02T01:14:51.921Z,132.23
2019-02-02T01:19:57.568Z,128.63
2019-02-02T01:25:03.393Z,145.83
2019-02-02T01:30:11.972Z,131.90
2019-02-02T01:35:17.851Z,133.60
2019-02-02T01:40:23.736Z,136.37
2019-02-02T01:45:29.282Z,151.90
2019-02-02T01:50:35.074Z,149.20
2019-02-02T01:55:40.891Z,138.53
2019-02-02T02:00:47.116Z,151.33
2019-02-02T02:05:52.591Z,147.80
2019-02-02T02:10:58.723Z,145.47
2019-02-02T02:16:04.537Z,144.40
2019-02-02T02:21:10.360Z,141.50
2019-02-02T02:26:16.130Z,148.70
2019-02-02T02:31:21.977Z,155.73
2019-02-02T02:36:27.423Z,153.17
2019-02-02T02:41:33.062Z,147.77
2019-02-02T02:46:38.543Z,141.87
2019-02-02T02:51:44.354Z,146.40
2019-02-02T02:56:49.818Z,153.27
2019-02-02T03:01:55.600Z,137.33
2019-02-02T03:07:01.381Z,141.13
2019-02-02T03:12:07.166Z,151.67
2019-02-02T03:17:12.630Z,144.67
2019-02-02T03:22:18.087Z,135.97
2019-02-02T03:27:23.896Z,140.97
2019-02-02T03:32:29.447Z,143.53
2019-02-02T03:37:35.256Z,149.87
2019-02-02T03:42:40.794Z,141.50
2019-02-02T03:47:46.247Z,140.47
2019-02-02T03:52:51.706Z,148.83
2019-02-02T03:57:57.831Z,143.53
2019-02-02T04:03:03.602Z,143.43
2019-02-02T04:08:09.567Z,144.27
2019-02-02T04:13:15.050Z,145.17
2019-02-02T04:18:20.530Z,152.87
2019-02-02T04:23:26.338Z,140.37
2019-02-02T04:28:32.551Z,150.83
2019-02-02T04:33:38.387Z,152.80
2019-02-02T04:38:43.904Z,136.40
2019-02-02T04:43:49.395Z,134.40
2019-02-02T04:48:54.865Z,146.43
2019-02-02T04:54:00.459Z,140.90
2019-02-02T04:59:06.782Z,143.67
2019-02-02T05:04:12.227Z,141.97
2019-02-02T05:09:17.686Z,144.37
2019-02-02T05:14:23.206Z,146.90
2019-02-02T05:19:28.646Z,139.17
2019-02-02T05:24:34.139Z,146.43
2019-02-02T05:29:41.543Z,147.20
2019-02-02T05:34:45.943Z,154.07
2019-02-02T05:39:51.763Z,143.80
2019-02-02T05:44:57.616Z,135.47
2019-02-02T05:50:03.452Z,136.17
2019-02-02T05:55:10.987Z,142.73
2019-02-02T06:00:21.007Z,139.20
2019-02-02T06:05:26.459Z,139.00
2019-02-02T06:10:32.294Z,147.87
2019-02-02T06:15:38.136Z,160.40
2019-02-02T06:20:43.911Z,140.97
2019-02-02T06:25:49.468Z,142.60
2019-02-02T06:30:55.299Z,137.57
2019-02-02T06:36:03.524Z,143.33
2019-02-02T06:41:07.013Z,149.27
2019-02-02T06:46:12.807Z,146.20
2019-02-02T06:51:18.382Z,147.70
2019-02-02T06:56:23.827Z,149.23
2019-02-02T07:01:29.262Z,151.70
2019-02-02T07:06:35.076Z,146.03
2019-02-02T07:11:41.563Z,145.47
2019-02-02T07:16:47.022Z,147.57
2019-02-02T07:21:52.561Z,154.90
2019-02-02T07:26:58.346Z,136.00
2019-02-02T07:32:03.903Z,143.63
2019-02-02T07:37:10.071Z,136.10
2019-02-02T07:42:16.191Z,153.93
2019-02-02T07:47:22.040Z,130.03
2019-02-02T07:52:27.587Z,121.50
2019-02-02T07:57:33.061Z,150.83
2019-02-02T08:02:38.555Z,139.90
2019-02-02T08:07:44.028Z,129.23
2019-02-02T08:12:49.868Z,144.97
2019-02-02T08:17:55.332Z,135.47
2019-02-02T08:23:01.252Z,138.20
2019-02-02T08:28:06.855Z,148.73
2019-02-02T08:33:12.686Z,137.97
2019-02-02T08:38:18.207Z,139.97
2019-02-02T08:43:23.659Z,133.30
2019-02-02T08:48:29.854Z,146.27
2019-02-02T08:53:36.111Z,135.50
2019-02-02T08:58:41.914Z,139.37
2019-02-02T09:03:47.439Z,131.03
2019-02-02T09:08:52.897Z,142.30
2019-02-02T09:13:58.337Z,142.10
2019-02-02T09:19:03.826Z,129.03
2019-02-02T09:24:09.304Z,127.50
2019-02-02T09:29:15.144Z,139.87
2019-02-02T09:34:21.053Z,133.30
2019-02-02T09:39:26.875Z,137.93
2019-02-02T09:44:32.697Z,141.10
2019-02-02T09:49:38.502Z,139.33
2019-02-02T09:54:44.078Z,140.50
2019-02-02T09:59:49.542Z,142.10
2019-02-02T10:04:55.386Z,151.60
2019-02-02T10:10:01.620Z,123.07
2019-02-02T10:15:07.426Z,134.77
2019-02-02T10:20:16.399Z,126.07
2019-02-02T10:25:25.373Z,128.23
2019-02-02T10:30:34.889Z,139.40
2019-02-02T10:35:40.500Z,132.77
2019-02-02T10:40:46.789Z,128.73
2019-02-02T10:45:52.938Z,134.50
2019-02-02T10:50:58.427Z,139.20
2019-02-02T10:56:03.874Z,129.23
2019-02-02T11:01:09.670Z,128.50
2019-02-02T11:06:15.939Z,128.23
2019-02-02T11:11:21.742Z,148.30
2019-02-02T11:16:27.964Z,153.03
2019-02-02T11:21:34.182Z,135.00
2019-02-02T11:26:39.640Z,128.33
2019-02-02T11:31:45.475Z,139.17
2019-02-02T11:36:51.675Z,135.47
2019-02-02T11:41:57.846Z,153.17
2019-02-02T11:47:03.285Z,150.20
2019-02-02T11:52:09.078Z,138.57
2019-02-02T11:57:14.498Z,144.23
2019-02-02T12:02:19.971Z,131.50
2019-02-02T12:07:25.789Z,131.83
2019-02-02T12:12:31.238Z,136.13
2019-02-02T12:17:37.006Z,129.63
2019-02-02T12:22:42.555Z,134.30
2019-02-02T12:27:48.378Z,130.77
2019-02-02T12:32:53.823Z,133.07
2019-02-02T12:37:59.984Z,144.67
2019-02-02T12:43:05.552Z,140.37
2019-02-02T12:48:11.090Z,142.20
2019-02-02T12:53:16.987Z,128.30
2019-02-02T12:58:22.794Z,143.67
2019-02-02T13:03:28.291Z,138.77
2019-02-02T13:08:34.095Z,137.40
2019-02-02T13:13:42.597Z,145.73
2019-02-02T13:18:45.499Z,151.93
2019-02-02T13:23:50.958Z,163.73
2019-02-02T13:28:56.735Z,169.13
2019-02-02T13:34:02.293Z,166.43
2019-02-02T13:39:11.378Z,273.27
2019-02-02T13:44:16.822Z,175.13
2019-02-02T13:49:22.631Z,239.60
2019-02-02T13:54:28.088Z,256.60
2019-02-02T13:59:33.903Z,222.60
2019-02-02T14:04:39.362Z,187.97
2019-02-02T14:09:45.181Z,152.03
2019-02-02T14:14:50.657Z,181.53
2019-02-02T14:19:56.156Z,149.83
2019-02-02T14:25:01.676Z,137.60
2019-02-02T14:30:12.697Z,133.27
2019-02-02T14:35:28.144Z,233.97
2019-02-02T14:40:34.315Z,153.47
2019-02-02T14:45:40.442Z,163.27
2019-02-02T14:55:42.719Z,145.43
2019-02-02T15:00:48.748Z,119.77
2019-02-02T15:05:54.242Z,176.20
2019-02-02T15:10:59.678Z,148.57
2019-02-02T15:16:05.529Z,128.70
2019-02-02T15:21:11.014Z,129.30
2019-02-02T15:26:16.823Z,142.17
2019-02-02T15:31:22.578Z,156.47
2019-02-02T15:36:28.010Z,134.20
2019-02-02T15:41:33.480Z,140.23
2019-02-02T15:46:48.790Z,128.40
2019-02-02T15:51:44.745Z,141.40
2019-02-02T15:56:50.255Z,153.77
2019-02-02T16:01:55.770Z,145.63
2019-02-02T16:07:01.567Z,140.53
2019-02-02T16:12:09.625Z,161.63
2019-02-02T16:17:15.849Z,146.43
2019-02-02T16:22:21.323Z,139.20
2019-02-02T16:27:27.130Z,150.13
2019-02-02T16:32:32.577Z,133.77
2019-02-02T16:37:38.419Z,120.83
2019-02-02T16:42:44.555Z,131.67
2019-02-02T16:47:50.022Z,134.00
2019-02-02T16:52:55.568Z,140.30
2019-02-02T16:58:01.018Z,122.53
2019-02-02T17:03:06.790Z,148.37
2019-02-02T17:08:12.218Z,144.23
2019-02-02T17:13:17.654Z,116.97
2019-02-02T17:18:23.216Z,113.57
2019-02-02T17:23:29.021Z,110.43
2019-02-02T17:28:34.463Z,118.83
2019-02-02T17:33:39.912Z,115.57
2019-02-02T17:38:45.379Z,134.90
2019-02-02T17:43:51.221Z,117.90
2019-02-02T17:48:56.819Z,109.87
2019-02-02T17:54:02.687Z,108.17
2019-02-02T17:59:08.650Z,125.53
2019-02-02T18:04:13.952Z,134.37
2019-02-02T18:09:19.560Z,119.90
2019-02-02T18:14:25.012Z,126.73
2019-02-02T18:19:30.535Z,112.23
2019-02-02T18:24:36.111Z,101.13
2019-02-02T18:29:41.534Z,108.63
2019-02-02T18:34:51.295Z,123.10
2019-02-02T18:39:52.881Z,107.23
2019-02-02T18:44:58.420Z,106.47
2019-02-02T18:50:05.120Z,108.90
2019-02-02T18:55:17.994Z,101.03
2019-02-02T19:00:23.666Z,103.23
2019-02-02T19:05:29.652Z,94.73
2019-02-02T19:10:59.330Z,105.60
2019-02-02T19:16:16.110Z,103.77
2019-02-02T19:21:51.836Z,110.90
2019-02-02T19:27:10.279Z,112.50
2019-02-02T19:32:33.147Z,95.67
2019-02-02T19:43:23.993Z,102.40
2019-02-02T19:48:29.444Z,98.57
2019-02-02T19:53:34.950Z,95.63
2019-02-02T19:58:40.416Z,88.47
2019-02-02T20:03:45.922Z,86.40
2019-02-02T20:08:51.367Z,89.93
2019-02-02T20:13:56.839Z,86.83
2019-02-02T20:19:02.276Z,90.27
2019-02-02T20:24:07.739Z,91.90
2019-02-02T20:29:17.223Z,94.27
2019-02-02T20:39:40.234Z,89.10
2019-02-02T20:44:46.156Z,91.03
2019-02-02T20:49:58.031Z,91.43
2019-02-02T20:55:05.475Z,88.50
2019-02-02T21:00:15.767Z,90.83
2019-02-02T21:05:21.958Z,91.87
2019-02-02T21:10:27.779Z,93.60
2019-02-02T21:15:41.761Z,86.77
2019-02-02T21:20:48.054Z,84.90
2019-02-02T21:26:02.486Z,91.63
2019-02-02T21:31:07.980Z,97.33
2019-02-02T21:36:15.894Z,95.30
2019-02-02T21:41:23.198Z,93.43
2019-02-02T21:46:29.109Z,96.43
2019-02-02T21:51:34.567Z,94.53
2019-02-02T21:56:42.277Z,108.20
2019-02-02T22:01:47.855Z,99.73
2019-02-02T22:06:54.212Z,106.37
2019-02-02T22:12:00.392Z,101.33
2019-02-02T22:17:06.406Z,93.37
2019-02-02T22:22:11.926Z,91.93
2019-02-02T22:27:19.067Z,83.60
2019-02-02T22:32:39.430Z,77.77
2019-02-02T22:37:45.690Z,77.70
2019-02-02T22:42:55.838Z,69.17
2019-02-02T22:48:02.020Z,66.43
2019-02-02T22:53:07.868Z,64.40
2019-02-02T22:58:13.660Z,50.13
2019-02-02T23:03:21.235Z,53.77
2019-02-02T23:10:16.108Z,51.70
2019-02-02T23:15:56.813Z,53.23
2019-02-02T23:21:02.654Z,44.03
2019-02-02T23:26:08.451Z,43.53
2019-02-02T23:31:14.436Z,48.97
2019-02-02T23:36:19.919Z,40.50
2019-02-02T23:41:25.846Z,40.73
2019-02-02T23:46:31.685Z,41.37
2019-02-02T23:51:37.503Z,44.57
2019-02-02T23:56:43.506Z,31.73
